createdAt,value
2023-03-12T00:04:57.907Z,2.3
2023-03-12T00:09:58.932Z,2.4
2023-03-12T00:15:00.488Z,2.2
2023-03-12T00:20:02.461Z,2.3
2023-03-12T00:24:57.496Z,2.1
2023-03-12T00:30:01.724Z,2.2
2023-03-12T00:35:00.982Z,2
2023-03-12T00:39:59.645Z,2.1
2023-03-12T00:45:00.772Z,2.3
2023-03-12T00:49:57.885Z,2.2
2023-03-12T00:54:57.553Z,2.1
2023-03-12T00:59:57.555Z,2
2023-03-12T01:04:57.557Z,2
2023-03-12T01:09:57.500Z,2
2023-03-12T01:14:57.453Z,2.1
2023-03-12T01:19:57.469Z,2.2
2023-03-12T01:24:57.512Z,2.1
2023-03-12T01:29:57.723Z,2
2023-03-12T01:34:58.008Z,1.9
2023-03-12T01:39:57.861Z,1.8
2023-03-12T01:44:58.867Z,2
2023-03-12T01:49:57.683Z,2.2
2023-03-12T01:54:57.365Z,2.3
2023-03-12T01:59:58.858Z,2.1
2023-03-12T02:04:57.613Z,2
2023-03-12T02:09:57.319Z,2.1
2023-03-12T02:14:57.405Z,2.1
2023-03-12T02:19:57.548Z,1.8
2023-03-12T02:24:57.516Z,2
2023-03-12T02:29:58.260Z,2.1
2023-03-12T02:34:57.482Z,2.2
2023-03-12T02:39:57.391Z,2.1
2023-03-12T02:44:58.132Z,2.2
2023-03-12T02:49:57.475Z,2.2
2023-03-12T02:54:57.776Z,2.1
2023-03-12T02:59:57.517Z,2
2023-03-12T03:04:57.318Z,2.2
2023-03-12T03:09:57.585Z,2.3
2023-03-12T03:14:57.540Z,2.1
2023-03-12T03:19:57.351Z,2.2
2023-03-12T03:24:57.360Z,2.3
2023-03-12T03:29:57.334Z,2.2
2023-03-12T03:34:57.324Z,2.2
2023-03-12T03:39:57.289Z,2.4
2023-03-12T03:44:57.470Z,2.5
2023-03-12T03:49:57.356Z,2.6
2023-03-12T03:54:57.646Z,2.4
2023-03-12T03:59:57.492Z,2.6
2023-03-12T04:04:57.533Z,2.5
2023-03-12T04:09:57.468Z,2.5
2023-03-12T04:14:57.284Z,2.6
2023-03-12T04:19:57.508Z,2.7
2023-03-12T04:24:57.510Z,2.8
2023-03-12T04:29:57.292Z,2.6
2023-03-12T04:34:57.315Z,2.8
2023-03-12T04:39:57.484Z,2.7
2023-03-12T04:44:57.516Z,2.7
2023-03-12T04:49:57.552Z,2.7
2023-03-12T04:54:57.458Z,2.6
2023-03-12T04:59:57.164Z,2.4
2023-03-12T05:04:57.310Z,2.5
2023-03-12T05:09:57.394Z,2.4
2023-03-12T05:14:57.364Z,2.3
2023-03-12T05:19:57.446Z,2.4
2023-03-12T05:24:57.433Z,2.5
2023-03-12T05:29:57.540Z,2.5
2023-03-12T05:34:57.310Z,2.3
2023-03-12T05:39:57.338Z,2.7
2023-03-12T05:44:57.395Z,2.4
2023-03-12T05:49:57.492Z,2.5
2023-03-12T05:54:57.269Z,2.4
2023-03-12T05:59:57.304Z,2.5
2023-03-12T06:04:57.479Z,2.2
2023-03-12T06:09:57.380Z,2.3
2023-03-12T06:14:57.124Z,2.1
2023-03-12T06:19:57.283Z,2.3
2023-03-12T06:24:57.256Z,2.5
2023-03-12T06:29:57.473Z,2.3
2023-03-12T06:34:57.082Z,2.4
2023-03-12T06:39:57.355Z,2.3
2023-03-12T06:44:57.196Z,2.2
2023-03-12T06:49:57.403Z,2.2
2023-03-12T06:54:57.510Z,2.3
2023-03-12T06:59:57.337Z,2.2
2023-03-12T07:04:57.520Z,2.2
2023-03-12T07:09:57.279Z,2.2
2023-03-12T07:14:57.372Z,2
2023-03-12T07:19:57.508Z,2.3
2023-03-12T07:24:57.329Z,2.1
2023-03-12T07:29:57.110Z,2.2
2023-03-12T07:34:57.380Z,2.1
2023-03-12T07:39:57.412Z,2.4
2023-03-12T07:44:57.216Z,2.4
2023-03-12T07:49:57.397Z,2.4
2023-03-12T07:54:57.586Z,2.6
2023-03-12T07:59:57.136Z,2.7
2023-03-12T08:04:57.376Z,2.8
2023-03-12T08:09:57.011Z,2.8
2023-03-12T08:14:57.313Z,2.9
2023-03-12T08:19:57.287Z,2.9
2023-03-12T08:24:57.186Z,3
2023-03-12T08:29:57.473Z,3.1
2023-03-12T08:34:57.446Z,3.1
2023-03-12T08:39:57.224Z,3.3
2023-03-12T08:44:57.023Z,3.5
2023-03-12T08:49:57.457Z,3.5
2023-03-12T08:54:57.030Z,3.7
2023-03-12T08:59:57.114Z,3.8
2023-03-12T09:04:57.287Z,4.1
2023-03-12T09:09:56.998Z,4.2
2023-03-12T09:15:02.978Z,4.2
2023-03-12T09:19:57.199Z,4.3
2023-03-12T09:24:57.252Z,4.5
2023-03-12T09:30:00.582Z,4.8
2023-03-12T09:34:57.065Z,4.9
2023-03-12T09:39:56.950Z,5.2
2023-03-12T09:44:59.209Z,5.6
2023-03-12T09:49:57.067Z,5.6
2023-03-12T09:54:57.175Z,5.9
2023-03-12T09:59:57.388Z,6
2023-03-12T10:05:00.141Z,6.2
2023-03-12T10:10:02.772Z,6.3
2023-03-12T10:14:56.894Z,6.5
2023-03-12T10:19:56.973Z,6.7
2023-03-12T10:24:57.277Z,6.7
2023-03-12T10:29:57.020Z,6.9
2023-03-12T10:34:57.156Z,7.1
2023-03-12T10:39:57.221Z,7.1
2023-03-12T10:44:58.261Z,7.4
2023-03-12T10:50:10.256Z,7.3
2023-03-12T10:54:56.939Z,7.5
2023-03-12T11:00:05.089Z,7.7
2023-03-12T11:04:56.894Z,7.7
2023-03-12T11:09:57.140Z,7.8
2023-03-12T11:15:00.135Z,7.9
2023-03-12T11:19:56.880Z,7.9
2023-03-12T11:24:56.816Z,8
2023-03-12T11:29:57.099Z,8.1
2023-03-12T11:34:57.106Z,8.1
2023-03-12T11:39:56.973Z,8.1
2023-03-12T11:44:56.949Z,8.2
2023-03-12T11:49:57.331Z,8.2
2023-03-12T11:54:56.897Z,8.3
2023-03-12T12:00:01.630Z,8.3
2023-03-12T12:04:56.888Z,8.6
2023-03-12T12:10:02.151Z,8.7
2023-03-12T12:14:57.123Z,8.8
2023-03-12T12:19:56.907Z,8.9
2023-03-12T12:24:56.816Z,8.9
2023-03-12T12:30:04.099Z,9.2
2023-03-12T12:34:56.791Z,9.2
2023-03-12T12:40:04.310Z,9.1
2023-03-12T12:44:56.821Z,9.2
2023-03-12T12:49:56.952Z,9.6
2023-03-12T12:54:56.924Z,9.6
2023-03-12T12:59:57.042Z,9.8
2023-03-12T13:04:57.737Z,9.9
2023-03-12T13:09:57.786Z,9.5
2023-03-12T13:14:56.857Z,9.6
2023-03-12T13:20:01.529Z,9.9
2023-03-12T13:24:56.889Z,9.8
2023-03-12T13:29:57.357Z,9.7
2023-03-12T13:34:57.200Z,9.7
2023-03-12T13:39:56.967Z,10.3
2023-03-12T13:45:10.162Z,10.5
2023-03-12T13:49:58.429Z,10.6
2023-03-12T13:54:56.967Z,10.8
2023-03-12T13:59:57.025Z,10.9
2023-03-12T14:04:58.207Z,10.9
2023-03-12T14:09:56.850Z,10.9
2023-03-12T14:14:56.698Z,10.9
2023-03-12T14:19:56.725Z,11
2023-03-12T14:24:56.660Z,11.2
2023-03-12T14:29:56.737Z,11.1
2023-03-12T14:34:56.980Z,11.1
2023-03-12T14:39:57.013Z,11
2023-03-12T14:44:56.686Z,10.9
2023-03-12T14:49:56.768Z,10.8
2023-03-12T14:54:56.724Z,10.8
2023-03-12T14:59:58.764Z,10.7
2023-03-12T15:04:56.907Z,10.6
2023-03-12T15:09:56.788Z,10.5
2023-03-12T15:14:56.724Z,10.6
2023-03-12T15:19:57.318Z,10.5
2023-03-12T15:25:00.707Z,10.3
2023-03-12T15:29:56.724Z,10.3
2023-03-12T15:34:59.088Z,10.3
2023-03-12T15:39:59.888Z,10.3
2023-03-12T15:44:56.864Z,10.3
2023-03-12T15:49:58.453Z,10.2
2023-03-12T15:54:58.878Z,10.1
2023-03-12T15:59:56.950Z,10.1
2023-03-12T16:04:57.047Z,10.3
2023-03-12T16:09:56.893Z,10
2023-03-12T16:14:57.093Z,10.1
2023-03-12T16:19:56.903Z,10
2023-03-12T16:24:56.786Z,9.9
2023-03-12T16:29:56.693Z,9.6
2023-03-12T16:34:56.805Z,9.8
2023-03-12T16:39:57.789Z,9.7
2023-03-12T16:44:56.721Z,9.7
2023-03-12T16:49:56.928Z,9.5
2023-03-12T16:54:56.936Z,9.5
2023-03-12T16:59:56.730Z,9.4
2023-03-12T17:04:56.920Z,9.4
2023-03-12T17:09:56.567Z,9.2
2023-03-12T17:14:57.824Z,9.3
2023-03-12T17:19:56.963Z,9.3
2023-03-12T17:24:56.876Z,9.2
2023-03-12T17:29:56.611Z,9.2
2023-03-12T17:34:56.537Z,9.3
2023-03-12T17:39:56.978Z,9.3
2023-03-12T17:44:56.816Z,9.2
2023-03-12T17:49:56.668Z,9.1
2023-03-12T17:54:56.779Z,9.1
2023-03-12T17:59:56.500Z,9.1
2023-03-12T18:04:57.101Z,9.2
2023-03-12T18:09:56.506Z,9.1
2023-03-12T18:14:56.761Z,9.2
2023-03-12T18:19:56.728Z,9.3
2023-03-12T18:24:56.730Z,9.2
2023-03-12T18:29:56.483Z,9.2
2023-03-12T18:34:56.570Z,9.1
2023-03-12T18:39:56.708Z,9.1
2023-03-12T18:44:56.519Z,9.2
2023-03-12T18:49:56.666Z,9.1
2023-03-12T18:54:56.536Z,9.1
2023-03-12T18:59:56.597Z,8.9
2023-03-12T19:04:56.584Z,8.9
2023-03-12T19:09:56.687Z,8.9
2023-03-12T19:14:56.419Z,8.9
2023-03-12T19:19:56.910Z,8.9
2023-03-12T19:24:56.668Z,8.9
2023-03-12T19:29:56.648Z,9
2023-03-12T19:34:56.708Z,8.9
2023-03-12T19:39:56.499Z,9
2023-03-12T19:44:56.578Z,9.1
2023-03-12T19:49:56.456Z,9.1
2023-03-12T19:55:04.176Z,9.2
2023-03-12T19:59:56.589Z,9.2
2023-03-12T20:04:56.665Z,9
2023-03-12T20:09:56.651Z,8.9
2023-03-12T20:14:56.511Z,9
2023-03-12T20:19:56.442Z,8.8
2023-03-12T20:24:56.468Z,8.9
2023-03-12T20:29:56.592Z,8.7
2023-03-12T20:34:56.909Z,8.8
2023-03-12T20:39:56.383Z,8.7
2023-03-12T20:44:56.448Z,8.9
2023-03-12T20:49:56.470Z,8.9
2023-03-12T20:54:56.922Z,8.9
2023-03-12T20:59:56.322Z,8.8
2023-03-12T21:04:56.770Z,8.9
2023-03-12T21:09:56.653Z,9
2023-03-12T21:14:56.500Z,8.8
2023-03-12T21:19:56.366Z,8.8
2023-03-12T21:24:56.487Z,8.6
2023-03-12T21:29:56.480Z,8.6
2023-03-12T21:34:56.487Z,8.8
2023-03-12T21:39:56.778Z,8.9
2023-03-12T21:44:56.376Z,8.9
2023-03-12T21:49:56.513Z,8.7
2023-03-12T21:54:56.406Z,8.7
2023-03-12T21:59:56.384Z,8.7
2023-03-12T22:04:56.764Z,8.6
2023-03-12T22:09:56.323Z,8.6
2023-03-12T22:14:56.778Z,8.6
2023-03-12T22:19:56.630Z,8.6
2023-03-12T22:24:56.620Z,8.7
2023-03-12T22:29:56.601Z,8.6
2023-03-12T22:34:56.378Z,8.5
2023-03-12T22:39:56.731Z,8.5
2023-03-12T22:44:56.332Z,8.5
2023-03-12T22:49:56.586Z,8.5
2023-03-12T22:54:56.340Z,8.5
2023-03-12T22:59:56.497Z,8.6
2023-03-12T23:04:56.686Z,8.5
2023-03-12T23:09:56.301Z,8.6
2023-03-12T23:14:56.450Z,8.5
2023-03-12T23:19:56.317Z,8.5
2023-03-12T23:24:56.270Z,8.5
2023-03-12T23:29:56.462Z,8.5
2023-03-12T23:34:56.494Z,8.5
2023-03-12T23:39:56.231Z,8.5
2023-03-12T23:44:56.286Z,8.4
2023-03-12T23:49:56.456Z,8.4
2023-03-12T23:54:56.249Z,8.4
2023-03-12T23:59:56.278Z,8.6
